Steuben, Ohio
Current Conditions -  °F | °C
As of 12:53 AM on Friday 31 Oct 2014 (Local Time) from KPCW Reporting Station
Overcast Overcast  
Wind Chill: 44°   Ceiling: 5500
Heat Index: 47°   Visibility: 10mi
Dew Point: 39°   Wind: 6mph
Humidity: 73%   Direction: 220°SW
Pressure: 30.01"   Gusts: NA
Location:  41.2282°N, 82.706°W
Report Text: KPCW 310453Z AUTO 22005KT 10SM OVC055 08/04 A3001 RMK AO2 T00830038 $
Loading
Personal Weather Stations






























Interactive Weather Map
Tropical Storm Tracking
New forecast layout! Learn more

10-Day Weather Forecast

Advertisements
Track Severe Weather on mobile